Weather at Camí Heliport

Public forecast

Using degrees Celsius for public forecast. Weather courtesy of forecast.io.

Closest aviation weather report (METAR) to Camí Heliport

Closest report is Pirineus - la Seu d'Urgel Airport, 13.4 nm (24.8 km) SSW. Retrieved 2020/09/19 15:00 UTC (10 minutes ago):

LESU 191500Z 20007KT 160V300 9999 SCT049 BKN070 22/12 Q1014

Closest aviation forecast (TAF) to Camí Heliport

Closest forecast is Pirineus - la Seu d'Urgel Airport, 13.4 nm (24.8 km) SSW. Retrieved 2020/09/19 15:00 UTC (10 minutes ago):

TAF LESU 191400Z 1915/2015 VRB03KT 9999 FEW010 BKN020 TX25/2014Z TN08/2005Z PROB40 TEMPO 1915/1916 VRB05G15KT 3000 TSRA FEW025CB BKN040